Time;durP1;ratioP1;P1;durP2;ratioP2;P2;SDS_P1;SDS_P2;PMS_P1;PMS_P2;Temp;Humidity;BMP_temperature;BMP_pressure;BME280_temperature;BME280_humidity;BME280_pressure;Samples;Min_cycle;Max_cycle;Signal;HPM_P1;HPM_P2
2021/08/04 00:01:32;;;;;;;18.12;9.90;;;;;;;18.46;80.01;100935.66;1750074;82;21003;-72
2021/08/04 00:03:59;;;;;;;16.62;8.53;;;;;;;18.43;80.06;100935.91;1750130;82;21104;-72
2021/08/04 00:06:26;;;;;;;18.42;10.35;;;;;;;18.38;80.11;100935.48;1750052;82;21450;-73
2021/08/04 00:08:52;;;;;;;13.62;9.18;;;;;;;18.33;80.31;100937.22;1750381;80;20968;-73
2021/08/04 00:11:19;;;;;;;10.80;8.50;;;;;;;18.30;80.42;100937.99;1750036;82;21490;-72
2021/08/04 00:13:48;;;;;;;16.57;8.58;;;;;;;18.26;80.58;100939.23;1750053;82;20929;-72
2021/08/04 00:16:18;;;;;;;19.90;10.68;;;;;;;18.20;80.46;100936.61;1750252;81;22147;-70
2021/08/04 00:18:44;;;;;;;17.15;8.80;;;;;;;18.15;80.43;100938.34;1750338;80;20920;-70
2021/08/04 00:21:11;;;;;;;12.00;6.45;;;;;;;18.12;80.54;100941.73;1745349;80;20948;-72
2021/08/04 00:23:38;;;;;;;8.88;6.75;;;;;;;18.07;80.86;100935.99;1736437;82;20897;-73
2021/08/04 00:26:04;;;;;;;11.97;6.78;;;;;;;18.02;81.02;100942.53;1736193;81;20928;-70
2021/08/04 00:28:32;;;;;;;9.90;5.80;;;;;;;17.97;81.02;100934.63;1736129;82;21540;-71
2021/08/04 00:30:59;;;;;;;7.20;5.85;;;;;;;17.94;81.27;100936.20;1736092;82;20842;-70
2021/08/04 00:35:45;;;;;;;6.97;6.03;;;;;;;17.90;81.26;100932.99;1798564;79;22651;-70
2021/08/04 00:38:13;;;;;;;14.87;7.00;;;;;;;17.83;81.08;100939.80;1758398;81;20889;-71
2021/08/04 00:40:42;;;;;;;10.03;6.50;;;;;;;17.80;81.14;100949.30;1758419;80;21488;-71
2021/08/04 00:43:09;;;;;;;10.28;7.33;;;;;;;17.76;81.33;100950.53;1758424;81;20951;-70
2021/08/04 00:45:37;;;;;;;10.90;6.58;;;;;;;17.72;81.22;100951.76;1758462;81;20940;-70
2021/08/04 00:48:04;;;;;;;10.65;5.67;;;;;;;17.68;81.47;100956.50;1758266;81;20889;-71
2021/08/04 00:50:32;;;;;;;10.65;5.95;;;;;;;17.66;81.40;100955.78;1758381;80;20885;-70
2021/08/04 00:52:59;;;;;;;6.75;5.25;;;;;;;17.62;81.55;100958.34;1758280;81;21961;-70
2021/08/04 00:55:26;;;;;;;6.62;5.55;;;;;;;17.60;81.66;100958.95;1758279;80;20876;-71
2021/08/04 00:57:53;;;;;;;9.53;5.10;;;;;;;17.57;81.84;100961.38;1758332;81;21381;-71
2021/08/04 01:00:20;;;;;;;11.00;5.28;;;;;;;17.55;81.97;100965.13;1758410;81;20924;-71
2021/08/04 01:03:01;;;;;;;8.63;6.20;;;;;;;17.52;82.10;100964.91;1758277;81;20920;-71
2021/08/04 01:05:40;;;;;;;11.35;5.80;;;;;;;17.51;82.14;100966.36;1758261;81;21506;-71
2021/08/04 01:08:10;;;;;;;11.50;6.15;;;;;;;17.48;82.32;100973.25;1724147;83;21314;-70
2021/08/04 01:10:43;;;;;;;6.70;5.58;;;;;;;17.46;82.44;100975.19;1724625;83;20856;-71
2021/08/04 01:13:29;;;;;;;7.42;5.30;;;;;;;17.43;82.53;100973.64;1724812;83;20970;-71
2021/08/04 01:16:27;;;;;;;10.05;5.62;;;;;;;17.42;82.65;100971.11;1724808;83;20947;-71
2021/08/04 01:19:11;;;;;;;9.23;5.95;;;;;;;17.41;82.93;100966.30;1724715;83;21139;-71
2021/08/04 01:21:55;;;;;;;7.40;6.05;;;;;;;17.39;82.95;100966.91;1724807;83;20926;-70
2021/08/04 01:24:39;;;;;;;15.70;6.70;;;;;;;17.37;82.82;100968.34;1723942;83;20963;-71
2021/08/04 01:27:06;;;;;;;7.97;5.75;;;;;;;17.36;83.00;100965.81;1724786;82;20923;-71
2021/08/04 01:29:33;;;;;;;8.45;5.45;;;;;;;17.33;83.11;100977.52;1711186;83;21020;-71
2021/08/04 01:32:01;;;;;;;9.75;5.58;;;;;;;17.31;82.87;100978.12;1708875;83;21132;-71
2021/08/04 01:34:28;;;;;;;5.05;4.47;;;;;;;17.29;82.52;100977.91;1719337;82;21008;-72
2021/08/04 01:36:56;;;;;;;7.10;4.95;;;;;;;17.26;82.16;100979.49;1714795;83;20976;-72
2021/08/04 01:39:22;;;;;;;7.70;5.12;;;;;;;17.23;82.14;100982.37;1714657;83;21415;-71
2021/08/04 01:41:51;;;;;;;7.47;5.08;;;;;;;17.21;82.27;100993.13;1715081;83;20908;-72
2021/08/04 01:44:17;;;;;;;8.98;5.25;;;;;;;17.18;82.39;100984.08;1714717;83;21541;-72
2021/08/04 01:46:44;;;;;;;8.00;5.90;;;;;;;17.14;82.54;100982.64;1714190;83;20885;-72
2021/08/04 01:49:12;;;;;;;9.73;5.87;;;;;;;17.12;82.77;100977.95;1714238;83;20941;-72
2021/08/04 01:51:39;;;;;;;7.90;5.03;;;;;;;17.11;83.04;100970.98;1711528;83;21403;-72
2021/08/04 01:54:06;;;;;;;7.50;5.08;;;;;;;17.07;83.24;100967.73;1711389;83;20888;-71
2021/08/04 01:56:33;;;;;;;8.20;4.80;;;;;;;17.06;83.22;100975.83;1714217;83;21996;-72
2021/08/04 01:58:59;;;;;;;7.05;5.17;;;;;;;17.03;83.16;100976.92;1714328;83;20941;-72
2021/08/04 02:01:26;;;;;;;10.43;6.37;;;;;;;17.01;83.00;100981.97;1714209;83;20961;-72
2021/08/04 02:03:54;;;;;;;14.30;7.72;;;;;;;16.97;82.79;100984.04;1714094;83;20932;-72
2021/08/04 02:07:02;;;;;;;12.45;8.88;;;;;;;16.94;82.89;100981.16;1714285;83;20936;-70
2021/08/04 02:09:51;;;;;;;10.75;9.68;;;;;;;16.92;83.00;100984.91;1708686;84;21139;-71
2021/08/04 02:12:19;;;;;;;21.87;11.73;;;;;;;16.87;83.04;100987.90;1671730;84;20998;-72
2021/08/04 02:15:05;;;;;;;13.30;11.95;;;;;;;16.84;83.02;100988.65;1718060;83;21409;-72
2021/08/04 02:17:48;;;;;;;13.83;9.93;;;;;;;16.81;83.48;100983.12;1693376;84;20884;-71
2021/08/04 02:20:35;;;;;;;12.00;9.28;;;;;;;16.79;83.72;100983.69;1718125;83;20952;-72
2021/08/04 02:23:23;;;;;;;11.12;8.68;;;;;;;16.78;83.93;100992.58;1693477;84;21156;-71
2021/08/04 02:26:00;;;;;;;9.60;8.43;;;;;;;16.75;84.01;100995.00;1717982;83;21056;-72
2021/08/04 02:28:36;;;;;;;9.65;8.60;;;;;;;16.75;83.89;101002.95;1692688;84;20861;-70
2021/08/04 02:31:03;;;;;;;12.95;9.38;;;;;;;16.73;83.51;101003.55;1717969;83;20932;-71
2021/08/04 02:33:30;;;;;;;12.37;11.10;;;;;;;16.71;83.19;101000.18;1693729;84;20935;-71
2021/08/04 02:35:57;;;;;;;14.05;12.75;;;;;;;16.69;83.07;101004.75;1687787;85;21801;-71
2021/08/04 02:38:24;;;;;;;12.80;11.48;;;;;;;16.69;83.11;101007.40;1718289;83;20896;-72
2021/08/04 02:40:51;;;;;;;13.03;11.83;;;;;;;16.67;83.09;101013.79;1718001;83;21381;-71
2021/08/04 02:43:20;;;;;;;12.47;11.00;;;;;;;16.64;83.05;101006.10;1693682;84;20920;-71
2021/08/04 02:45:47;;;;;;;12.58;11.08;;;;;;;16.62;83.18;101016.80;1687742;85;21003;-71
2021/08/04 02:48:14;;;;;;;12.30;10.23;;;;;;;16.61;83.67;101020.43;1693418;84;21529;-72
2021/08/04 02:50:46;;;;;;;13.18;8.48;;;;;;;16.59;84.09;101014.41;1687723;84;21454;-72
2021/08/04 02:53:16;;;;;;;13.18;9.33;;;;;;;16.60;84.28;101013.92;1692358;84;21401;-74
2021/08/04 02:55:43;;;;;;;9.98;9.00;;;;;;;16.61;84.49;101022.21;1717999;83;20889;-73
2021/08/04 02:58:15;;;;;;;13.43;8.85;;;;;;;16.61;84.49;101017.78;1693709;84;20908;-72
2021/08/04 03:00:40;;;;;;;13.93;9.13;;;;;;;16.61;84.61;101023.08;1717217;83;21176;-72
2021/08/04 03:03:07;;;;;;;14.98;10.63;;;;;;;16.61;84.51;101016.91;1693753;84;20975;-71
2021/08/04 03:05:34;;;;;;;9.03;7.97;;;;;;;16.60;84.53;101029.32;1689258;84;20975;-70
2021/08/04 03:08:01;;;;;;;13.18;9.38;;;;;;;16.60;84.59;101035.94;1691752;84;20881;-70
2021/08/04 03:10:27;;;;;;;10.53;8.58;;;;;;;16.60;84.49;101035.11;1746475;81;20924;-72
2021/08/04 03:12:54;;;;;;;8.18;7.30;;;;;;;16.58;84.42;101032.56;1746799;82;22132;-71
2021/08/04 03:15:21;;;;;;;13.93;6.72;;;;;;;16.58;84.42;101032.56;1746378;82;20908;-71
2021/08/04 03:17:49;;;;;;;18.23;6.92;;;;;;;16.60;84.43;101035.94;1710879;83;20908;-71
2021/08/04 03:20:17;;;;;;;11.63;6.85;;;;;;;16.62;84.48;101047.75;1686248;85;21465;-71
2021/08/04 03:22:46;;;;;;;11.90;6.58;;;;;;;16.65;84.63;101049.69;1711293;84;20872;-71
2021/08/04 03:25:14;;;;;;;13.85;6.72;;;;;;;16.67;84.72;101045.56;1746330;82;21529;-70
2021/08/04 03:27:41;;;;;;;10.63;8.30;;;;;;;16.70;84.73;101047.50;1746342;81;20852;-71
2021/08/04 03:30:11;;;;;;;8.70;6.72;;;;;;;16.75;84.76;101053.76;1710754;83;20869;-71
2021/08/04 03:32:38;;;;;;;9.50;6.55;;;;;;;16.79;84.45;101053.88;1686263;85;20959;-72
2021/08/04 03:35:06;;;;;;;8.40;5.62;;;;;;;16.83;84.82;101052.71;1746702;82;20975;-71
2021/08/04 03:37:34;;;;;;;9.73;6.37;;;;;;;16.87;85.12;101058.10;1710736;83;21117;-70
2021/08/04 03:40:01;;;;;;;10.15;6.33;;;;;;;16.92;85.09;101069.20;1686569;85;21386;-71
2021/08/04 03:42:27;;;;;;;8.15;5.12;;;;;;;16.99;85.08;101067.73;1710752;83;20987;-71
2021/08/04 03:44:54;;;;;;;7.62;4.67;;;;;;;17.05;84.94;101061.57;1746273;82;20982;-71
2021/08/04 03:47:21;;;;;;;7.65;5.70;;;;;;;17.13;84.90;101065.30;1746392;81;20916;-70
2021/08/04 03:49:48;;;;;;;7.47;5.55;;;;;;;17.24;84.91;101071.55;1711124;84;21198;-71
2021/08/04 03:52:15;;;;;;;7.97;5.12;;;;;;;17.34;84.84;101069.81;1686130;85;21023;-74
2021/08/04 03:54:42;;;;;;;9.83;6.05;;;;;;;17.45;84.68;101070.27;1710821;84;20894;-72
2021/08/04 03:57:09;;;;;;;7.12;5.70;;;;;;;17.53;84.42;101064.70;1746321;81;20916;-72
2021/08/04 03:59:36;;;;;;;8.80;5.97;;;;;;;17.64;84.31;101074.42;1710764;84;20904;-70
2021/08/04 04:02:03;;;;;;;12.18;6.33;;;;;;;17.74;84.10;101079.34;1686266;85;21473;-72
2021/08/04 04:04:31;;;;;;;11.45;6.30;;;;;;;17.80;83.74;101075.32;1746351;82;20928;-72
2021/08/04 04:06:58;;;;;;;8.35;6.40;;;;;;;17.88;83.34;101084.84;1710812;84;20996;-72
2021/08/04 04:09:25;;;;;;;13.13;6.47;;;;;;;17.96;83.00;101082.87;1686189;85;20987;-72
2021/08/04 04:11:54;;;;;;;14.73;8.25;;;;;;;18.02;82.73;101077.89;1746489;82;20833;-73
2021/08/04 04:14:20;;;;;;;13.43;7.40;;;;;;;18.13;82.55;101074.83;1711102;83;21095;-72
2021/08/04 04:16:47;;;;;;;9.53;6.10;;;;;;;18.22;82.44;101084.66;1686185;85;21481;-70
2021/08/04 04:19:14;;;;;;;11.75;6.35;;;;;;;18.32;82.12;101085.57;1746776;82;20919;-71
2021/08/04 04:21:41;;;;;;;17.48;6.60;;;;;;;18.43;81.72;101092.59;1746437;81;20903;-71
2021/08/04 04:24:07;;;;;;;12.30;5.95;;;;;;;18.53;81.51;101077.56;1746705;81;20884;-71
2021/08/04 04:26:36;;;;;;;15.18;6.22;;;;;;;18.67;81.33;101083.49;1746392;81;21556;-71
2021/08/04 04:29:04;;;;;;;21.17;6.83;;;;;;;18.84;81.14;101078.42;1746318;82;21432;-71
2021/08/04 04:31:31;;;;;;;15.28;8.08;;;;;;;19.11;80.53;101081.44;1746553;81;20932;-71
2021/08/04 04:33:58;;;;;;;11.63;6.70;;;;;;;19.46;79.56;101083.11;1710791;84;20916;-71
2021/08/04 04:36:25;;;;;;;8.95;6.03;;;;;;;19.93;78.20;101084.27;1686448;85;21473;-71
2021/08/04 04:38:52;;;;;;;12.43;5.55;;;;;;;20.50;76.36;101087.30;1746458;82;21025;-71
2021/08/04 04:41:19;;;;;;;11.57;5.28;;;;;;;21.15;74.34;101090.48;1746241;82;20927;-70
2021/08/04 04:43:46;;;;;;;6.80;4.97;;;;;;;21.81;72.24;101089.34;1711122;84;20944;-71
2021/08/04 04:46:13;;;;;;;9.95;5.20;;;;;;;22.50;69.98;101089.48;1686237;85;20975;-70
2021/08/04 04:48:40;;;;;;;23.30;6.35;;;;;;;23.11;67.79;101078.27;1746404;82;20896;-71
2021/08/04 04:51:09;;;;;;;28.10;6.10;;;;;;;23.73;65.59;101085.91;1710772;83;21110;-70
2021/08/04 04:53:36;;;;;;;10.88;5.00;;;;;;;24.34;63.32;101087.71;1686062;85;20980;-71
2021/08/04 04:56:03;;;;;;;9.48;4.58;;;;;;;24.87;61.31;101082.72;1746307;82;20916;-70
2021/08/04 04:58:30;;;;;;;5.28;4.80;;;;;;;25.32;59.69;101086.53;1710755;84;20928;-70
2021/08/04 05:00:57;;;;;;;8.90;4.87;;;;;;;25.71;57.55;101082.40;1686123;85;20944;-71
2021/08/04 05:03:24;;;;;;;8.43;4.70;;;;;;;26.15;56.18;101088.43;1746675;82;21550;-72
2021/08/04 05:05:51;;;;;;;10.68;4.50;;;;;;;26.61;55.23;101078.89;1710703;83;20921;-72
2021/08/04 05:08:18;;;;;;;6.47;4.30;;;;;;;27.12;53.95;101082.09;1686340;85;20985;-71
2021/08/04 05:10:45;;;;;;;9.83;4.50;;;;;;;27.63;52.62;101088.76;1746319;82;21348;-72
2021/08/04 05:13:12;;;;;;;22.67;6.15;;;;;;;28.14;51.40;101088.29;1710776;83;20889;-71
2021/08/04 05:15:39;;;;;;;10.70;6.35;;;;;;;28.61;49.91;101090.27;1686157;85;21912;-72
2021/08/04 05:18:06;;;;;;;17.60;7.08;;;;;;;29.01;48.52;101085.56;1710737;83;20983;-71
2021/08/04 05:20:32;;;;;;;15.00;6.97;;;;;;;29.36;47.68;101088.20;1746334;82;20939;-71
2021/08/04 05:23:00;;;;;;;15.35;8.70;;;;;;;29.69;47.25;101089.09;1746369;82;20959;-70
2021/08/04 05:25:27;;;;;;;17.32;9.73;;;;;;;30.03;46.40;101084.52;1710955;84;20975;-71
2021/08/04 05:27:54;;;;;;;15.08;8.73;;;;;;;30.32;45.98;101083.25;1686210;85;21206;-70
2021/08/04 05:30:21;;;;;;;17.23;9.73;;;;;;;30.57;45.43;101083.41;1746453;82;20884;-70
2021/08/04 05:32:48;;;;;;;19.45;9.73;;;;;;;30.81;44.76;101077.48;1710982;83;20928;-70
2021/08/04 05:35:15;;;;;;;18.82;9.68;;;;;;;31.09;44.22;101067.70;1686101;85;20983;-71
2021/08/04 05:37:42;;;;;;;24.02;11.65;;;;;;;31.40;43.61;101066.88;1746523;82;20849;-70
2021/08/04 05:40:11;;;;;;;17.98;10.95;;;;;;;31.67;42.79;101068.89;1710821;84;21074;-70
2021/08/04 05:42:37;;;;;;;18.02;12.20;;;;;;;31.96;41.84;101074.16;1711040;83;21422;-72
2021/08/04 05:45:06;;;;;;;18.02;12.10;;;;;;;32.14;41.33;101069.33;1710800;84;21427;-72
2021/08/04 05:47:34;;;;;;;18.00;12.43;;;;;;;32.29;40.69;101069.50;1711043;83;20900;-72
2021/08/04 05:50:01;;;;;;;22.20;12.28;;;;;;;32.48;41.05;101068.97;1710823;84;20971;-71
2021/08/04 05:52:28;;;;;;;19.57;13.72;;;;;;;32.72;40.95;101074.87;1711127;83;21500;-71
2021/08/04 05:54:55;;;;;;;21.77;16.20;;;;;;;32.91;40.23;101078.41;1746260;82;20987;-70
2021/08/04 05:57:22;;;;;;;18.27;14.73;;;;;;;33.03;40.12;101073.83;1746606;82;21003;-70
2021/08/04 05:59:49;;;;;;;22.40;15.43;;;;;;;33.11;39.82;101078.16;1746412;82;20967;-69
2021/08/04 06:02:16;;;;;;;21.95;17.55;;;;;;;33.17;39.69;101077.25;1710786;83;20916;-68
2021/08/04 06:04:43;;;;;;;30.10;18.52;;;;;;;33.30;39.22;101081.64;1746499;82;21543;-69
2021/08/04 06:07:10;;;;;;;24.70;18.23;;;;;;;33.47;38.88;101075.02;1710755;83;20920;-69
2021/08/04 06:09:37;;;;;;;24.67;18.27;;;;;;;33.64;39.53;101077.92;1710723;84;21476;-68
2021/08/04 06:12:06;;;;;;;22.20;17.02;;;;;;;33.79;39.07;101085.07;1710838;84;21040;-70
2021/08/04 06:14:34;;;;;;;21.62;17.40;;;;;;;34.04;38.13;101088.95;1710875;83;21450;-69
2021/08/04 06:17:01;;;;;;;23.15;17.57;;;;;;;34.34;38.01;101091.27;1746469;82;21138;-71
2021/08/04 06:19:29;;;;;;;23.38;17.42;;;;;;;34.56;37.51;101099.64;1710851;83;20967;-75
2021/08/04 06:21:57;;;;;;;26.77;17.32;;;;;;;34.79;37.22;101096.05;1710804;84;20936;-72
2021/08/04 06:24:24;;;;;;;18.92;14.65;;;;;;;35.00;36.70;101104.93;1746409;81;20904;-70
2021/08/04 06:26:52;;;;;;;16.05;13.40;;;;;;;35.06;36.08;101099.02;1710973;84;20873;-66
2021/08/04 06:29:19;;;;;;;12.63;9.73;;;;;;;35.07;35.74;101098.79;1746390;82;21908;-69
2021/08/04 06:31:46;;;;;;;10.08;7.50;;;;;;;35.13;35.65;101108.45;1746412;82;20975;-77
2021/08/04 06:34:12;;;;;;;11.48;7.97;;;;;;;35.02;34.46;101099.25;1710754;83;20889;-72
2021/08/04 06:36:39;;;;;;;10.43;8.05;;;;;;;34.77;34.51;101100.37;1686413;85;21426;-69
2021/08/04 06:39:07;;;;;;;9.40;6.92;;;;;;;34.59;34.66;101102.69;1747093;82;20944;-70
2021/08/04 06:41:33;;;;;;;17.17;8.35;;;;;;;34.56;34.72;101101.00;1746630;82;21507;-71
2021/08/04 06:44:00;;;;;;;9.13;5.92;;;;;;;34.61;35.10;101098.37;1711018;83;20896;-74
2021/08/04 06:46:37;;;;;;;9.93;6.35;;;;;;;34.73;35.42;101099.73;1686289;85;20916;-73
2021/08/04 06:49:05;;;;;;;7.83;5.87;;;;;;;34.90;34.85;101098.45;1746691;82;21420;-73
2021/08/04 06:51:33;;;;;;;12.13;6.15;;;;;;;35.21;34.54;101103.98;1746506;82;20872;-73
2021/08/04 06:54:00;;;;;;;7.10;5.33;;;;;;;35.52;33.39;101101.80;1710982;83;21710;-72
2021/08/04 06:56:27;;;;;;;10.48;4.70;;;;;;;35.69;32.29;101104.86;1686179;85;20976;-71
2021/08/04 06:58:54;;;;;;;6.33;4.75;;;;;;;35.73;32.30;101101.62;1746702;82;21346;-72
2021/08/04 07:01:21;;;;;;;9.40;4.28;;;;;;;35.76;31.66;101096.50;1710838;84;20916;-74
2021/08/04 07:03:48;;;;;;;5.60;3.65;;;;;;;35.73;31.28;101097.52;1686893;85;21004;-78
2021/08/04 07:06:15;;;;;;;8.55;3.33;;;;;;;35.61;30.16;101097.59;1747172;82;21196;-78
2021/08/04 07:08:43;;;;;;;5.20;2.50;;;;;;;35.48;30.25;101098.18;1710808;83;20849;-79
2021/08/04 07:11:10;;;;;;;5.47;2.42;;;;;;;35.57;30.18;101095.88;1686325;85;21399;-78
2021/08/04 07:13:37;;;;;;;3.08;2.30;;;;;;;35.76;30.38;101095.14;1746471;82;20892;-74
2021/08/04 07:16:06;;;;;;;1.92;1.82;;;;;;;36.00;29.60;101091.69;1710794;83;21437;-76
2021/08/04 07:18:33;;;;;;;1.15;1.00;;;;;;;36.20;29.19;101088.46;1686166;85;21515;-75
2021/08/04 07:21:01;;;;;;;2.02;1.17;;;;;;;36.40;28.11;101085.72;1746385;81;20876;-77
2021/08/04 07:23:28;;;;;;;1.70;1.40;;;;;;;36.54;28.42;101086.98;1746474;81;21066;-76
2021/08/04 07:25:56;;;;;;;1.25;1.12;;;;;;;36.59;28.53;101093.88;1746350;82;21002;-76
2021/08/04 07:28:23;;;;;;;2.65;1.50;;;;;;;36.33;26.45;101093.25;1710770;84;20884;-77
2021/08/04 07:30:49;;;;;;;1.70;1.52;;;;;;;35.94;27.46;101095.41;1686261;85;22104;-75
2021/08/04 07:33:16;;;;;;;0.80;0.80;;;;;;;35.79;27.54;101099.27;1710651;83;20960;-73
2021/08/04 07:35:43;;;;;;;1.17;0.85;;;;;;;35.78;26.80;101102.55;1746431;82;21306;-73
2021/08/04 07:38:10;;;;;;;1.25;1.25;;;;;;;35.84;27.11;101102.06;1710809;84;20995;-74
2021/08/04 07:40:37;;;;;;;2.37;1.32;;;;;;;35.97;27.61;101096.27;1686400;85;21053;-76
2021/08/04 07:43:04;;;;;;;3.77;1.22;;;;;;;36.14;28.55;101103.66;1746492;81;21091;-75
2021/08/04 07:45:31;;;;;;;1.87;0.90;;;;;;;36.34;26.78;101100.39;1746453;82;21019;-76
2021/08/04 07:47:57;;;;;;;1.40;1.20;;;;;;;36.33;26.61;101099.56;1710836;84;21449;-77
2021/08/04 07:50:24;;;;;;;1.82;1.22;;;;;;;36.47;25.89;101098.66;1686468;85;20956;-75
2021/08/04 07:52:51;;;;;;;3.15;1.25;;;;;;;36.69;26.58;101089.94;1746661;81;20888;-76
2021/08/04 07:55:18;;;;;;;1.87;1.77;;;;;;;36.93;25.85;101087.76;1710849;83;21969;-75
2021/08/04 07:57:45;;;;;;;2.58;1.52;;;;;;;36.86;25.61;101090.39;1686191;85;20960;-75
2021/08/04 08:00:13;;;;;;;3.35;2.02;;;;;;;36.66;26.20;101090.46;1746650;82;21391;-75
2021/08/04 08:02:42;;;;;;;2.22;1.65;;;;;;;36.71;26.83;101080.13;1746441;81;20932;-75
2021/08/04 08:05:10;;;;;;;5.22;1.50;;;;;;;36.93;26.92;101082.80;1711065;84;21445;-75
2021/08/04 08:07:37;;;;;;;2.72;1.95;;;;;;;37.22;25.91;101082.58;1686404;85;21789;-76
2021/08/04 08:10:07;;;;;;;2.08;1.22;;;;;;;37.51;26.33;101081.23;1716240;82;20916;-77
2021/08/04 08:12:35;;;;;;;2.62;2.05;;;;;;;37.74;26.12;101080.05;1710784;83;20949;-76
2021/08/04 08:15:02;;;;;;;2.25;1.80;;;;;;;37.87;25.67;101077.41;1686155;85;20936;-75
2021/08/04 08:17:30;;;;;;;3.45;1.60;;;;;;;38.04;25.84;101080.55;1746415;82;20915;-76
2021/08/04 08:19:57;;;;;;;1.42;1.32;;;;;;;38.26;26.33;101077.11;1710784;83;21526;-75
2021/08/04 08:22:23;;;;;;;3.83;1.47;;;;;;;38.24;24.29;101077.91;1686176;85;20880;-76
2021/08/04 08:24:50;;;;;;;2.33;1.40;;;;;;;38.12;24.75;101074.58;1710691;83;20908;-75
2021/08/04 08:27:17;;;;;;;2.75;1.67;;;;;;;38.15;25.78;101075.41;1746266;82;20904;-75
2021/08/04 08:29:44;;;;;;;1.90;1.27;;;;;;;37.95;24.07;101072.82;1746428;82;20944;-74
2021/08/04 08:32:11;;;;;;;2.05;1.17;;;;;;;37.72;24.81;101082.78;1710719;84;21519;-76
2021/08/04 08:34:38;;;;;;;2.90;1.47;;;;;;;37.80;24.45;101081.45;1686137;85;20947;-75
2021/08/04 08:37:05;;;;;;;3.55;1.47;;;;;;;37.94;24.68;101082.66;1710679;84;21473;-75
2021/08/04 08:39:32;;;;;;;2.85;1.70;;;;;;;38.12;24.92;101086.91;1746442;82;20944;-75
2021/08/04 08:42:01;;;;;;;3.17;1.50;;;;;;;38.35;25.15;101084.28;1710793;83;20869;-76
2021/08/04 08:44:29;;;;;;;2.98;1.90;;;;;;;38.52;24.82;101084.13;1686232;85;21017;-76
2021/08/04 08:46:56;;;;;;;1.67;1.40;;;;;;;38.65;24.26;101079.51;1746460;82;20930;-76
2021/08/04 08:49:28;;;;;;;2.17;1.75;;;;;;;38.77;23.56;101082.00;1710778;84;20936;-74
2021/08/04 08:51:55;;;;;;;2.62;1.80;;;;;;;38.87;24.10;101080.67;1686435;85;21031;-75
2021/08/04 08:54:23;;;;;;;5.03;1.80;;;;;;;38.91;23.86;101074.92;1746335;82;20923;-75
2021/08/04 08:56:51;;;;;;;1.82;1.30;;;;;;;38.88;24.12;101071.89;1746511;82;21227;-75
2021/08/04 08:59:18;;;;;;;1.72;1.42;;;;;;;38.83;23.73;101073.25;1710780;84;20939;-77
2021/08/04 09:01:45;;;;;;;5.00;1.72;;;;;;;38.75;24.29;101073.22;1686519;85;20932;-76
2021/08/04 09:04:15;;;;;;;1.60;1.50;;;;;;;38.47;23.27;101072.56;1746397;81;20974;-76
2021/08/04 09:06:55;;;;;;;4.85;1.27;;;;;;;38.27;24.29;101073.84;1711122;83;20999;-77
2021/08/04 09:09:27;;;;;;;3.70;2.10;;;;;;;38.31;24.25;101070.30;1686171;85;21666;-76
2021/08/04 09:12:07;;;;;;;3.05;1.50;;;;;;;38.50;23.81;101069.86;1689195;85;21449;-76
2021/08/04 09:14:34;;;;;;;2.22;1.65;;;;;;;38.64;23.79;101070.17;1689235;85;21424;-77
2021/08/04 09:17:11;;;;;;;4.03;2.10;;;;;;;38.84;23.59;101068.85;1689284;85;20944;-75
2021/08/04 09:19:48;;;;;;;3.85;1.57;;;;;;;38.79;23.49;101068.03;1689321;85;20927;-75
2021/08/04 09:22:23;;;;;;;2.67;1.92;;;;;;;38.60;23.17;101069.91;1688916;85;22252;-75
2021/08/04 09:25:10;;;;;;;2.72;1.50;;;;;;;38.51;23.82;101068.23;1689205;85;20921;-74
2021/08/04 09:27:45;;;;;;;3.37;1.50;;;;;;;38.51;24.43;101068.75;1689238;85;20960;-75
2021/08/04 09:30:16;;;;;;;4.58;1.67;;;;;;;38.54;24.62;101064.94;1689399;85;20919;-74
2021/08/04 09:32:44;;;;;;;1.60;1.40;;;;;;;38.61;24.18;101063.31;1688415;85;20939;-74
2021/08/04 09:35:15;;;;;;;2.92;1.50;;;;;;;38.55;22.84;101061.64;1689461;85;21910;-75
2021/08/04 09:37:42;;;;;;;1.65;1.55;;;;;;;38.61;23.50;101060.57;1689000;85;21394;-74
2021/08/04 09:40:12;;;;;;;4.42;1.35;;;;;;;38.72;23.93;101066.92;1689222;85;20951;-76
2021/08/04 09:42:46;;;;;;;4.40;1.65;;;;;;;38.85;23.49;101061.47;1689425;85;21468;-75
2021/08/04 09:45:16;;;;;;;2.00;1.67;;;;;;;38.96;23.49;101068.66;1688799;85;20944;-75
2021/08/04 09:47:56;;;;;;;;;;;;;;;39.03;23.96;101063.72;1691826;85;21430;-74
2021/08/04 09:50:24;;;;;;;2.02;1.37;;;;;;;39.08;23.78;101051.93;1689513;85;20272;-74
2021/08/04 09:52:57;;;;;;;1.60;1.25;;;;;;;39.07;23.26;101045.62;1689313;85;20948;-74
2021/08/04 09:55:24;;;;;;;5.05;1.30;;;;;;;39.07;23.29;101047.00;1689427;85;20912;-75
2021/08/04 09:57:53;;;;;;;1.52;1.42;;;;;;;39.16;23.10;101045.91;1689304;85;20896;-75
2021/08/04 10:00:21;;;;;;;3.45;1.72;;;;;;;39.22;23.37;101037.96;1689450;85;21122;-75
2021/08/04 10:02:48;;;;;;;1.50;1.15;;;;;;;39.27;22.95;101043.44;1689235;85;21481;-74
2021/08/04 10:05:26;;;;;;;1.90;1.80;;;;;;;39.28;23.10;101040.95;1689855;85;20911;-76
2021/08/04 10:08:10;;;;;;;2.65;2.02;;;;;;;39.28;22.88;101042.89;1691179;85;20915;-73
2021/08/04 10:10:52;;;;;;;3.20;1.90;;;;;;;39.17;22.94;101036.56;1693207;84;21424;-73
2021/08/04 10:13:28;;;;;;;1.50;1.17;;;;;;;39.16;23.00;101036.30;1708983;84;21015;-73
2021/08/04 10:16:02;;;;;;;2.75;1.30;;;;;;;39.22;22.86;101041.23;1696884;84;20967;-74
2021/08/04 10:18:33;;;;;;;2.15;1.42;;;;;;;39.30;23.58;101035.20;1708949;84;20972;-74
2021/08/04 10:21:04;;;;;;;3.42;1.72;;;;;;;39.36;22.76;101036.86;1709390;84;20908;-74
2021/08/04 10:23:31;;;;;;;1.20;1.10;;;;;;;39.40;22.78;101025.64;1696813;84;20876;-74
2021/08/04 10:25:58;;;;;;;1.12;1.07;;;;;;;39.30;22.44;101031.91;1709267;84;22196;-75
2021/08/04 10:28:26;;;;;;;1.52;1.25;;;;;;;38.97;21.81;101028.59;1696588;84;21292;-74
2021/08/04 10:30:53;;;;;;;10.98;1.40;;;;;;;38.68;22.55;101022.75;1709593;84;20884;-74
2021/08/04 10:33:20;;;;;;;1.87;0.93;;;;;;;38.63;21.23;101021.38;1696637;84;20907;-75
2021/08/04 10:35:57;;;;;;;5.70;2.05;;;;;;;38.66;21.48;101018.64;1709029;84;20956;-74
2021/08/04 10:38:26;;;;;;;1.95;1.50;;;;;;;38.71;21.80;101022.75;1696723;84;21143;-74
2021/08/04 10:41:18;;;;;;;4.22;1.60;;;;;;;38.74;21.31;101016.19;1709074;84;21430;-74
2021/08/04 10:44:00;;;;;;;3.77;1.30;;;;;;;38.83;21.13;101017.04;1697088;84;21023;-74
2021/08/04 10:46:32;;;;;;;1.55;1.45;;;;;;;38.93;22.33;101017.91;1708273;84;20980;-74
2021/08/04 10:49:12;;;;;;;2.87;1.95;;;;;;;38.93;22.46;101017.91;1696680;84;21089;-75
2021/08/04 10:51:43;;;;;;;1.27;1.10;;;;;;;38.94;22.67;101014.62;1708985;84;21147;-74
2021/08/04 10:54:19;;;;;;;4.15;1.40;;;;;;;38.85;21.57;101006.07;1696777;84;20950;-74
2021/08/04 10:56:52;;;;;;;4.10;1.92;;;;;;;38.84;22.14;101007.14;1708997;84;20956;-74
2021/08/04 10:59:26;;;;;;;1.85;1.52;;;;;;;38.79;22.50;101004.96;1696837;84;21549;-74
2021/08/04 11:01:55;;;;;;;3.58;1.30;;;;;;;38.71;22.28;101007.67;1709123;84;20995;-75
2021/08/04 11:04:34;;;;;;;1.47;1.37;;;;;;;38.74;23.24;101007.15;1696901;84;21144;-75
2021/08/04 11:07:12;;;;;;;2.20;1.37;;;;;;;38.65;22.93;101010.16;1708866;84;21449;-74
2021/08/04 11:09:53;;;;;;;1.60;1.20;;;;;;;38.46;22.82;101013.89;1696643;84;20884;-73
2021/08/04 11:12:44;;;;;;;3.75;1.62;;;;;;;38.33;22.71;101011.10;1710731;82;20944;-73
2021/08/04 11:15:28;;;;;;;2.20;1.80;;;;;;;38.28;22.30;101011.09;1745580;82;20943;-75
2021/08/04 11:18:07;;;;;;;2.10;1.42;;;;;;;38.14;22.19;101006.10;1746594;82;21135;-76
2021/08/04 11:20:37;;;;;;;1.77;1.47;;;;;;;38.15;22.85;101013.25;1746490;81;20880;-75
2021/08/04 11:23:05;;;;;;;4.60;1.35;;;;;;;38.23;23.73;101017.93;1746639;82;20911;-77
2021/08/04 11:25:36;;;;;;;1.82;1.30;;;;;;;38.22;22.51;101019.00;1711229;83;20908;-84
2021/08/04 11:28:13;;;;;;;1.27;1.17;;;;;;;38.05;21.87;101021.41;1686410;85;20904;-79
2021/08/04 11:30:50;;;;;;;1.20;1.10;;;;;;;37.79;21.78;101017.66;1746362;82;21083;-80
2021/08/04 11:33:25;;;;;;;1.30;1.20;;;;;;;37.68;22.90;101018.69;1710763;83;21020;-80
2021/08/04 11:36:17;;;;;;;1.40;1.30;;;;;;;37.50;23.18;101017.16;1686527;85;20876;-80